createdAt,value
2018-06-04T00:00:28.843Z,19.32
2018-06-04T00:01:02.136Z,18.75
2018-06-04T00:01:35.340Z,19.15
2018-06-04T00:02:08.598Z,19.40
2018-06-04T00:02:41.888Z,19.45
2018-06-04T00:03:15.128Z,19.15
2018-06-04T00:03:48.346Z,18.90
2018-06-04T00:04:21.590Z,19.12
2018-06-04T00:04:54.832Z,20.05
2018-06-04T00:05:28.076Z,21.42
2018-06-04T00:06:01.336Z,19.65
2018-06-04T00:06:34.574Z,19.67
2018-06-04T00:07:07.814Z,18.25
2018-06-04T00:07:41.070Z,19.67
2018-06-04T00:08:14.370Z,18.00
2018-06-04T00:08:47.616Z,19.98
2018-06-04T00:09:20.864Z,18.00
2018-06-04T00:09:54.185Z,18.65
2018-06-04T00:10:27.442Z,18.52
2018-06-04T00:11:00.676Z,19.55
2018-06-04T00:11:33.970Z,18.70
2018-06-04T00:12:07.216Z,19.37
2018-06-04T00:12:40.472Z,19.62
2018-06-04T00:13:13.755Z,18.92
2018-06-04T00:13:46.992Z,18.50
2018-06-04T00:14:20.270Z,19.32
2018-06-04T00:14:53.484Z,18.62
2018-06-04T00:15:26.700Z,18.82
2018-06-04T00:15:59.920Z,19.35
2018-06-04T00:16:33.178Z,18.07
2018-06-04T00:17:06.452Z,17.10
2018-06-04T00:17:39.682Z,17.60
2018-06-04T00:18:12.936Z,17.60
2018-06-04T00:18:46.205Z,16.02
2018-06-04T00:19:19.414Z,17.73
2018-06-04T00:19:52.708Z,17.80
2018-06-04T00:20:25.931Z,17.05
2018-06-04T00:20:59.140Z,16.90
2018-06-04T00:21:32.363Z,18.02
2018-06-04T00:22:05.642Z,17.00
2018-06-04T00:22:38.885Z,16.12
2018-06-04T00:23:12.090Z,17.10
2018-06-04T00:23:45.316Z,16.35
2018-06-04T00:24:18.600Z,17.35
2018-06-04T00:24:51.868Z,17.20
2018-06-04T00:25:25.118Z,16.77
2018-06-04T00:25:58.429Z,16.95
2018-06-04T00:26:31.654Z,17.62
2018-06-04T00:27:04.920Z,16.77
2018-06-04T00:27:38.277Z,17.32
2018-06-04T00:28:11.486Z,18.45
2018-06-04T00:28:44.727Z,17.57
2018-06-04T00:29:17.985Z,18.25
2018-06-04T00:29:51.191Z,15.88
2018-06-04T00:30:24.492Z,17.60
2018-06-04T00:30:57.729Z,18.02
2018-06-04T00:31:30.969Z,18.45
2018-06-04T00:32:04.224Z,18.40
2018-06-04T00:32:37.406Z,18.40
2018-06-04T00:33:10.645Z,18.15
2018-06-04T00:33:43.865Z,18.70
2018-06-04T00:34:17.078Z,17.70
2018-06-04T00:34:50.313Z,18.32
2018-06-04T00:35:23.560Z,18.23
2018-06-04T00:35:56.785Z,19.80
2018-06-04T00:36:29.992Z,18.15
2018-06-04T00:37:03.246Z,18.42
2018-06-04T00:37:36.485Z,18.05
2018-06-04T00:38:09.707Z,17.67
2018-06-04T00:38:42.915Z,18.45
2018-06-04T00:39:16.139Z,17.65
2018-06-04T00:39:49.401Z,17.62
2018-06-04T00:40:22.624Z,17.75
2018-06-04T00:40:55.877Z,18.52
2018-06-04T00:41:29.125Z,17.95
2018-06-04T00:42:02.355Z,18.45
2018-06-04T00:42:35.580Z,17.95
2018-06-04T00:43:08.812Z,16.87
2018-06-04T00:43:42.031Z,18.02
2018-06-04T00:44:15.247Z,17.62
2018-06-04T00:44:48.703Z,18.23
2018-06-04T00:45:21.935Z,18.52
2018-06-04T00:45:55.178Z,18.57
2018-06-04T00:46:28.397Z,17.65
2018-06-04T00:47:01.681Z,18.77
2018-06-04T00:47:34.903Z,17.57
2018-06-04T00:48:08.100Z,17.87
2018-06-04T00:48:41.311Z,18.55
2018-06-04T00:49:14.542Z,16.93
2018-06-04T00:49:47.759Z,17.40
2018-06-04T00:50:21.032Z,17.82
2018-06-04T00:50:54.267Z,17.67
2018-06-04T00:51:27.555Z,17.95
2018-06-04T00:52:00.798Z,18.02
2018-06-04T00:52:34.031Z,18.55
2018-06-04T00:53:07.255Z,17.60
2018-06-04T00:56:24.655Z,15.63
2018-06-04T00:56:57.889Z,16.80
2018-06-04T00:57:31.097Z,16.73
2018-06-04T00:58:05.116Z,15.30
2018-06-04T00:58:38.299Z,16.32
2018-06-04T00:59:11.481Z,16.30
2018-06-04T00:59:44.715Z,15.28
2018-06-04T01:00:17.971Z,15.23
2018-06-04T01:00:51.225Z,14.98
2018-06-04T01:01:24.491Z,14.47
2018-06-04T01:01:57.727Z,14.05
2018-06-04T01:02:30.913Z,15.68
2018-06-04T01:03:04.171Z,16.15
2018-06-04T01:03:37.409Z,15.65
2018-06-04T01:04:10.620Z,15.65
2018-06-04T01:04:43.851Z,16.32
2018-06-04T01:05:17.079Z,15.35
2018-06-04T01:05:50.283Z,15.00
2018-06-04T01:06:23.623Z,14.40
2018-06-04T01:06:56.831Z,15.15
2018-06-04T01:07:30.098Z,15.28
2018-06-04T01:08:03.311Z,14.15
2018-06-04T01:08:36.589Z,15.08
2018-06-04T01:09:10.002Z,15.50
2018-06-04T01:09:43.315Z,15.00
2018-06-04T01:10:16.559Z,14.73
2018-06-04T01:10:49.833Z,13.78
2018-06-04T01:11:23.091Z,13.72
2018-06-04T01:11:56.387Z,14.47
2018-06-04T01:12:29.633Z,15.10
2018-06-04T01:13:02.927Z,15.15
2018-06-04T01:13:36.173Z,13.93
2018-06-04T01:14:09.532Z,14.07
2018-06-04T01:14:42.768Z,15.95
2018-06-04T01:15:15.975Z,14.63
2018-06-04T01:15:49.256Z,14.65
2018-06-04T01:16:22.593Z,13.62
2018-06-04T01:16:55.825Z,13.93
2018-06-04T01:17:29.063Z,14.43
2018-06-04T01:18:02.292Z,15.58
2018-06-04T01:18:36.309Z,15.10
2018-06-04T01:19:09.596Z,13.93
2018-06-04T01:19:42.891Z,13.65
2018-06-04T01:20:16.129Z,13.98
2018-06-04T01:20:49.368Z,13.20
2018-06-04T01:21:22.603Z,13.72
2018-06-04T01:21:55.856Z,13.58
2018-06-04T01:22:29.077Z,13.80
2018-06-04T01:23:02.335Z,13.85
2018-06-04T01:23:35.567Z,14.13
2018-06-04T01:24:08.886Z,13.65
2018-06-04T01:24:42.133Z,14.47
2018-06-04T01:25:15.373Z,14.13
2018-06-04T01:25:48.612Z,14.80
2018-06-04T01:26:21.868Z,13.58
2018-06-04T01:26:55.072Z,14.05
2018-06-04T01:27:28.298Z,14.20
2018-06-04T01:28:01.555Z,14.30
2018-06-04T01:28:34.784Z,14.55
2018-06-04T01:29:08.052Z,15.48
2018-06-04T01:29:41.273Z,14.45
2018-06-04T01:30:14.511Z,14.20
2018-06-04T01:30:47.804Z,14.78
2018-06-04T01:31:21.035Z,15.13
2018-06-04T01:31:54.262Z,14.47
2018-06-04T01:32:27.636Z,14.30
2018-06-04T01:33:00.950Z,14.87
2018-06-04T01:33:34.217Z,15.68
2018-06-04T01:34:07.425Z,14.85
2018-06-04T01:34:40.665Z,15.15
2018-06-04T01:35:13.890Z,16.27
2018-06-04T01:35:47.095Z,16.23
2018-06-04T01:36:20.360Z,16.93
2018-06-04T01:36:53.605Z,14.90
2018-06-04T01:37:26.801Z,17.12
2018-06-04T01:38:00.090Z,16.62
2018-06-04T01:38:33.316Z,15.80
2018-06-04T01:39:07.674Z,16.27
2018-06-04T01:39:40.916Z,16.37
2018-06-04T01:40:14.159Z,16.48
2018-06-04T01:40:47.450Z,16.20
2018-06-04T01:41:20.688Z,17.17
2018-06-04T01:41:53.995Z,17.20
2018-06-04T01:42:27.303Z,16.27
2018-06-04T01:43:00.561Z,15.85
2018-06-04T01:43:33.799Z,16.97
2018-06-04T01:44:07.048Z,16.27
2018-06-04T01:44:40.321Z,16.75
2018-06-04T01:45:13.571Z,16.67
2018-06-04T01:45:46.854Z,17.45
2018-06-04T01:46:20.123Z,16.15
2018-06-04T01:46:53.356Z,16.52
2018-06-04T01:47:26.624Z,16.35
2018-06-04T01:47:59.884Z,15.75
2018-06-04T01:48:33.112Z,17.12
2018-06-04T01:49:06.376Z,16.60
2018-06-04T01:49:39.584Z,15.03
2018-06-04T01:50:12.830Z,15.28
2018-06-04T01:50:46.059Z,15.08
2018-06-04T01:51:19.305Z,15.45
2018-06-04T01:51:52.566Z,15.50
2018-06-04T01:52:25.849Z,15.20
2018-06-04T01:52:59.054Z,15.48
2018-06-04T01:53:32.297Z,14.58
2018-06-04T01:54:05.546Z,13.98
2018-06-04T01:54:38.743Z,14.05
2018-06-04T01:55:11.952Z,15.13
2018-06-04T01:55:45.176Z,13.55
2018-06-04T01:56:18.431Z,13.68
2018-06-04T01:56:51.681Z,14.85
2018-06-04T01:57:24.892Z,14.28
2018-06-04T01:57:58.123Z,14.83
2018-06-04T01:58:31.395Z,14.43
2018-06-04T01:59:04.676Z,14.78
2018-06-04T01:59:37.923Z,15.88
2018-06-04T02:00:11.190Z,15.25
2018-06-04T02:00:44.490Z,14.15
2018-06-04T02:01:17.805Z,15.43
2018-06-04T02:01:51.166Z,15.63
2018-06-04T02:02:24.390Z,14.13
2018-06-04T02:02:57.790Z,14.83
2018-06-04T02:03:31.012Z,14.68
2018-06-04T02:04:04.274Z,14.40
2018-06-04T02:04:37.510Z,14.63
2018-06-04T02:05:10.739Z,15.25
2018-06-04T02:05:43.984Z,14.75
2018-06-04T02:06:17.224Z,15.85
2018-06-04T02:06:50.600Z,15.50
2018-06-04T02:07:23.862Z,15.63
2018-06-04T02:07:57.104Z,16.12
2018-06-04T02:08:30.316Z,16.17
2018-06-04T02:09:05.068Z,16.30
2018-06-04T02:09:38.325Z,14.95
2018-06-04T02:10:11.614Z,15.38
2018-06-04T02:10:44.854Z,15.25
2018-06-04T02:11:18.181Z,16.75
2018-06-04T02:11:51.387Z,15.20
2018-06-04T02:12:24.677Z,14.60
2018-06-04T02:12:57.906Z,16.27
2018-06-04T02:13:31.108Z,12.60
2018-06-04T02:14:04.399Z,13.93
2018-06-04T02:14:37.615Z,15.48
2018-06-04T02:15:10.853Z,15.20
2018-06-04T02:15:44.102Z,15.58
2018-06-04T02:16:17.302Z,14.95
2018-06-04T02:16:50.542Z,14.95
2018-06-04T02:17:23.986Z,15.45
2018-06-04T02:17:57.258Z,15.32
2018-06-04T02:18:30.492Z,14.83
2018-06-04T02:19:04.116Z,16.65
2018-06-04T02:19:37.392Z,16.95
2018-06-04T02:20:10.637Z,15.95
2018-06-04T02:20:43.904Z,15.65
2018-06-04T02:21:17.136Z,15.18
2018-06-04T02:21:50.379Z,16.62
2018-06-04T02:22:23.595Z,16.40
2018-06-04T02:22:56.830Z,17.27
2018-06-04T02:23:30.029Z,16.67
2018-06-04T02:24:03.260Z,17.75
2018-06-04T02:24:36.516Z,15.75
2018-06-04T02:25:09.756Z,16.30
2018-06-04T02:25:42.993Z,16.87
2018-06-04T02:26:16.212Z,18.40
2018-06-04T02:26:49.442Z,17.87
2018-06-04T02:27:22.678Z,17.87
2018-06-04T02:27:55.892Z,17.35
2018-06-04T02:28:29.134Z,17.45
2018-06-04T02:29:02.374Z,17.42
2018-06-04T02:29:35.602Z,17.07
2018-06-04T02:30:08.814Z,18.42
2018-06-04T02:30:42.096Z,19.23
2018-06-04T02:31:15.410Z,15.45
2018-06-04T02:31:48.691Z,16.85
2018-06-04T02:32:21.942Z,16.00
2018-06-04T02:32:55.186Z,15.90
2018-06-04T02:33:28.416Z,17.75
2018-06-04T02:34:01.617Z,17.85
2018-06-04T02:34:34.862Z,18.95
2018-06-04T02:35:08.139Z,18.23
2018-06-04T02:35:41.367Z,17.37
2018-06-04T02:36:14.643Z,18.48
2018-06-04T02:36:47.862Z,19.07
2018-06-04T02:37:21.103Z,18.25
2018-06-04T02:37:54.396Z,17.92
2018-06-04T02:38:27.613Z,18.73
2018-06-04T02:39:00.828Z,17.37
2018-06-04T02:39:34.062Z,19.02
2018-06-04T02:40:07.336Z,18.50
2018-06-04T02:40:40.606Z,19.10
2018-06-04T02:41:13.819Z,19.60
2018-06-04T02:41:47.138Z,18.55
2018-06-04T02:42:20.400Z,18.00
2018-06-04T02:42:53.606Z,18.30
2018-06-04T02:43:26.879Z,20.82
2018-06-04T02:44:00.134Z,19.23
2018-06-04T02:44:33.362Z,18.82
2018-06-04T02:45:06.621Z,19.27
2018-06-04T02:45:39.874Z,19.27
2018-06-04T02:46:13.096Z,18.65
2018-06-04T02:46:46.333Z,20.40
2018-06-04T02:47:19.662Z,17.87
2018-06-04T02:47:52.891Z,18.60
2018-06-04T02:48:26.147Z,18.10
2018-06-04T02:48:59.377Z,19.45
2018-06-04T02:49:32.605Z,18.55
2018-06-04T02:50:06.104Z,19.27
2018-06-04T02:50:39.186Z,18.37
2018-06-04T02:51:12.436Z,19.12
2018-06-04T02:51:45.647Z,19.35
2018-06-04T02:52:18.876Z,18.42
2018-06-04T02:52:52.116Z,16.75
2018-06-04T02:53:25.360Z,18.55
2018-06-04T02:53:58.622Z,19.23
2018-06-04T02:54:31.946Z,18.32
2018-06-04T02:55:05.206Z,17.90
2018-06-04T02:55:38.424Z,18.77
2018-06-04T02:56:11.736Z,18.50
2018-06-04T02:56:44.980Z,18.37
2018-06-04T02:57:18.220Z,17.17
2018-06-04T02:57:51.514Z,18.27
2018-06-04T02:58:24.777Z,18.60
2018-06-04T02:58:58.002Z,18.42
2018-06-04T02:59:31.274Z,17.52
2018-06-04T03:00:04.940Z,17.60
2018-06-04T03:00:38.204Z,18.02
2018-06-04T03:01:11.475Z,18.42
2018-06-04T03:01:44.720Z,16.95
2018-06-04T03:02:17.967Z,18.82
2018-06-04T03:02:51.264Z,17.87
2018-06-04T03:03:24.480Z,18.40
2018-06-04T03:03:57.674Z,18.77
2018-06-04T03:04:30.922Z,17.80
2018-06-04T03:05:04.208Z,17.98
2018-06-04T03:05:37.548Z,17.55
2018-06-04T03:06:10.802Z,17.80
2018-06-04T03:06:44.055Z,17.75
2018-06-04T03:07:17.317Z,17.20
2018-06-04T03:07:50.495Z,15.95
2018-06-04T03:08:23.728Z,16.67
2018-06-04T03:08:56.928Z,17.87
2018-06-04T03:09:30.182Z,16.65
2018-06-04T03:10:03.525Z,15.75
2018-06-04T03:10:36.768Z,16.37
2018-06-04T03:11:10.046Z,17.62
2018-06-04T03:11:43.332Z,18.37
2018-06-04T03:12:16.550Z,17.20
2018-06-04T03:12:49.806Z,18.17
2018-06-04T03:13:23.053Z,19.07
2018-06-04T03:13:56.301Z,19.75
2018-06-04T03:14:29.560Z,18.32
2018-06-04T03:15:02.812Z,18.17
2018-06-04T03:15:36.034Z,16.90
2018-06-04T03:16:09.273Z,17.87
2018-06-04T03:16:42.952Z,18.75
2018-06-04T03:17:16.178Z,16.97
2018-06-04T03:17:49.444Z,18.17
2018-06-04T03:18:22.669Z,17.55
2018-06-04T03:18:55.888Z,17.02
2018-06-04T03:19:29.129Z,18.90
2018-06-04T03:20:02.392Z,16.95
2018-06-04T03:20:35.605Z,17.27
2018-06-04T03:21:08.848Z,19.57
2018-06-04T03:21:42.082Z,16.80
2018-06-04T03:22:15.317Z,17.67
2018-06-04T03:22:48.565Z,17.80
2018-06-04T03:23:21.800Z,19.02
2018-06-04T03:23:55.043Z,17.73
2018-06-04T03:24:28.262Z,19.12
2018-06-04T03:25:01.502Z,18.87
2018-06-04T03:25:34.724Z,18.50
2018-06-04T03:26:08.050Z,19.60
2018-06-04T03:26:41.252Z,18.10
2018-06-04T03:27:14.517Z,20.25
2018-06-04T03:27:47.762Z,19.15
2018-06-04T03:28:20.985Z,18.90
2018-06-04T03:28:54.204Z,18.70
2018-06-04T03:29:27.420Z,18.62
2018-06-04T03:30:00.631Z,18.62
2018-06-04T03:30:33.882Z,19.45
2018-06-04T03:31:07.153Z,19.17
2018-06-04T03:31:40.635Z,18.52
2018-06-04T03:32:13.889Z,19.15
2018-06-04T03:32:47.091Z,21.00
2018-06-04T03:33:20.311Z,18.98
2018-06-04T03:33:53.528Z,19.12
2018-06-04T03:34:26.817Z,20.12
2018-06-04T03:35:00.034Z,20.30
2018-06-04T03:35:33.235Z,19.87
2018-06-04T03:36:06.473Z,21.15
2018-06-04T03:36:39.685Z,20.27
2018-06-04T03:37:12.936Z,21.12
2018-06-04T03:37:46.159Z,20.45
2018-06-04T03:38:19.377Z,20.85
2018-06-04T03:38:52.624Z,20.43
2018-06-04T03:39:25.847Z,20.95
2018-06-04T03:39:59.116Z,21.82
2018-06-04T03:40:32.328Z,21.00
2018-06-04T03:41:07.273Z,21.57
2018-06-04T03:41:40.513Z,20.97
2018-06-04T03:42:13.744Z,22.93
2018-06-04T03:42:47.211Z,24.07
2018-06-04T03:43:20.435Z,22.25
2018-06-04T03:43:53.679Z,22.45
2018-06-04T03:44:26.944Z,23.15
2018-06-04T03:45:00.147Z,23.65
2018-06-04T03:45:33.352Z,24.23
2018-06-04T03:46:06.634Z,24.47
2018-06-04T03:46:39.847Z,24.15
2018-06-04T03:47:13.139Z,23.18
2018-06-04T03:47:46.356Z,23.65
2018-06-04T03:48:19.581Z,22.58
2018-06-04T03:48:52.789Z,24.95
2018-06-04T03:49:25.987Z,23.55
2018-06-04T03:49:59.229Z,24.12
2018-06-04T03:50:32.432Z,23.85
2018-06-04T03:51:05.708Z,22.85
2018-06-04T03:51:38.971Z,25.90
2018-06-04T03:52:12.156Z,25.35
2018-06-04T03:52:45.351Z,26.15
2018-06-04T03:53:18.565Z,26.20
2018-06-04T03:53:51.807Z,27.10
2018-06-04T03:54:25.003Z,26.62
2018-06-04T03:54:58.193Z,26.50
2018-06-04T03:55:31.401Z,25.43
2018-06-04T03:56:04.630Z,25.05
2018-06-04T03:56:37.863Z,26.15
2018-06-04T03:57:11.076Z,26.80
2018-06-04T03:57:44.326Z,26.17
2018-06-04T03:58:17.582Z,27.15
2018-06-04T03:58:50.811Z,26.27
2018-06-04T03:59:24.052Z,26.05
2018-06-04T03:59:57.254Z,26.85
2018-06-04T04:00:30.481Z,30.32
2018-06-04T04:01:03.835Z,27.93
2018-06-04T04:01:37.072Z,28.42
2018-06-04T04:02:10.299Z,28.90
2018-06-04T04:02:43.496Z,30.55
2018-06-04T04:03:16.763Z,28.90
2018-06-04T04:03:50.012Z,31.33
2018-06-04T04:04:23.241Z,28.80
2018-06-04T04:04:56.496Z,28.90
2018-06-04T04:05:29.804Z,31.20
2018-06-04T04:06:03.105Z,31.93
2018-06-04T04:06:36.608Z,31.15
2018-06-04T04:07:09.833Z,30.52
2018-06-04T04:07:43.171Z,31.75
2018-06-04T04:08:16.492Z,29.40
2018-06-04T04:08:49.671Z,30.23
2018-06-04T04:09:22.917Z,30.62
2018-06-04T04:09:56.145Z,31.85
2018-06-04T04:10:29.383Z,33.85
2018-06-04T04:11:02.611Z,33.05
2018-06-04T04:11:36.034Z,33.75
2018-06-04T04:12:09.268Z,30.25
2018-06-04T04:12:42.534Z,32.23
2018-06-04T04:13:15.747Z,32.58
2018-06-04T04:13:48.979Z,32.10
2018-06-04T04:14:22.191Z,34.13
2018-06-04T04:14:55.422Z,33.85
2018-06-04T04:15:28.680Z,32.28
2018-06-04T04:16:01.941Z,32.48
2018-06-04T04:16:37.224Z,32.45
2018-06-04T04:17:10.488Z,30.37
2018-06-04T04:17:43.766Z,31.87
2018-06-04T04:18:17.064Z,31.45
2018-06-04T04:18:50.274Z,31.80
2018-06-04T04:19:23.606Z,32.95
2018-06-04T04:19:56.813Z,33.55
2018-06-04T04:20:30.089Z,32.25
2018-06-04T04:21:03.314Z,32.23
2018-06-04T04:21:36.571Z,33.50
2018-06-04T04:22:09.804Z,32.38
2018-06-04T04:22:43.044Z,31.90
2018-06-04T04:23:16.254Z,29.75
2018-06-04T04:23:49.531Z,30.70
2018-06-04T04:24:22.756Z,29.67
2018-06-04T04:24:56.055Z,28.25
2018-06-04T04:25:29.319Z,27.48
2018-06-04T04:26:02.521Z,27.82
2018-06-04T04:26:35.743Z,28.25
2018-06-04T04:27:08.998Z,29.18
2018-06-04T04:27:42.262Z,28.10
2018-06-04T04:28:15.477Z,23.62
2018-06-04T04:28:48.700Z,23.87
2018-06-04T04:29:21.937Z,26.00
2018-06-04T04:29:55.150Z,23.77
2018-06-04T04:30:28.527Z,26.90
2018-06-04T04:31:01.756Z,28.02
2018-06-04T04:31:35.048Z,26.27
2018-06-04T04:32:08.285Z,24.45
2018-06-04T04:32:41.502Z,23.85
2018-06-04T04:33:14.759Z,25.57
2018-06-04T04:33:47.997Z,25.65
2018-06-04T04:34:21.184Z,25.15
2018-06-04T04:34:54.417Z,23.40
2018-06-04T04:35:27.594Z,23.32
2018-06-04T04:36:00.819Z,24.90
2018-06-04T04:36:34.033Z,27.13
2018-06-04T04:37:07.251Z,27.00
2018-06-04T04:37:40.540Z,25.50
2018-06-04T04:38:13.739Z,24.82
2018-06-04T04:38:46.947Z,26.25
2018-06-04T04:39:20.225Z,27.52
2018-06-04T04:39:53.452Z,27.25
2018-06-04T04:40:26.687Z,26.68
2018-06-04T04:40:59.923Z,26.93
2018-06-04T04:41:33.499Z,25.23
2018-06-04T04:42:06.778Z,27.32
2018-06-04T04:42:40.053Z,27.60
2018-06-04T04:43:13.271Z,28.32
2018-06-04T04:43:46.535Z,28.10
2018-06-04T04:44:19.723Z,28.92
2018-06-04T04:44:52.995Z,29.07
2018-06-04T04:45:26.253Z,27.10
2018-06-04T04:45:59.499Z,27.65
2018-06-04T04:46:32.791Z,27.70
2018-06-04T04:47:06.036Z,24.77
2018-06-04T04:47:39.266Z,24.80
2018-06-04T04:48:12.474Z,22.50
2018-06-04T04:48:45.713Z,19.60
2018-06-04T04:49:19.009Z,22.20
2018-06-04T04:49:52.263Z,22.50
2018-06-04T04:50:25.506Z,23.07
2018-06-04T04:50:58.733Z,23.40
2018-06-04T04:51:31.962Z,24.63
2018-06-04T04:52:05.222Z,23.27
2018-06-04T04:52:38.475Z,25.55
2018-06-04T04:53:11.714Z,26.60
2018-06-04T04:53:44.921Z,28.33
2018-06-04T04:54:18.169Z,25.37
2018-06-04T04:54:51.381Z,24.72
2018-06-04T04:55:24.650Z,24.77
2018-06-04T04:55:57.899Z,24.98
2018-06-04T04:56:31.153Z,26.50
2018-06-04T04:57:04.430Z,25.80
2018-06-04T04:57:37.655Z,19.10
2018-06-04T04:58:10.985Z,23.73
2018-06-04T04:58:44.233Z,21.37
2018-06-04T04:59:17.477Z,22.67
2018-06-04T04:59:50.722Z,24.15
2018-06-04T05:00:24.041Z,25.27
2018-06-04T05:00:57.225Z,23.87
2018-06-04T05:01:30.479Z,24.87
2018-06-04T05:02:03.741Z,26.12
2018-06-04T05:02:36.967Z,27.00
2018-06-04T05:03:10.231Z,25.20
2018-06-04T05:03:43.420Z,24.32
2018-06-04T05:04:16.648Z,24.02
2018-06-04T05:04:49.868Z,25.08
2018-06-04T05:05:23.123Z,23.83
2018-06-04T05:05:56.351Z,23.40
2018-06-04T05:06:29.574Z,25.17
2018-06-04T05:07:02.809Z,24.95
2018-06-04T05:07:36.031Z,26.20
2018-06-04T05:08:09.267Z,26.45
2018-06-04T05:08:42.519Z,24.50
2018-06-04T05:09:15.733Z,25.85
2018-06-04T05:09:48.963Z,24.05
2018-06-04T05:10:22.208Z,22.15
2018-06-04T05:10:55.465Z,23.83
2018-06-04T05:11:28.675Z,23.98
2018-06-04T05:12:01.896Z,25.88
2018-06-04T05:12:35.163Z,25.75
2018-06-04T05:13:08.427Z,24.12
2018-06-04T05:13:41.635Z,23.57
2018-06-04T05:14:15.207Z,24.45
2018-06-04T05:14:48.451Z,23.75
2018-06-04T05:15:21.702Z,25.48
2018-06-04T05:15:54.923Z,22.73
2018-06-04T05:16:28.177Z,25.82
2018-06-04T05:17:01.417Z,24.20
2018-06-04T05:17:34.667Z,23.87
2018-06-04T05:18:07.871Z,25.32
2018-06-04T05:18:41.087Z,26.52
2018-06-04T05:19:14.337Z,26.85
2018-06-04T05:19:47.577Z,25.10
2018-06-04T05:20:20.805Z,23.90
2018-06-04T05:20:54.028Z,23.77
2018-06-04T05:21:27.369Z,24.43
2018-06-04T05:22:00.599Z,24.63
2018-06-04T05:22:33.813Z,24.95
2018-06-04T05:23:07.047Z,24.75
2018-06-04T05:23:40.223Z,25.60
2018-06-04T05:24:13.469Z,24.10
2018-06-04T05:24:46.679Z,23.98
2018-06-04T05:25:19.901Z,22.13
2018-06-04T05:25:53.373Z,24.00
2018-06-04T05:26:26.617Z,23.95
2018-06-04T05:26:59.855Z,24.55
2018-06-04T05:27:33.063Z,23.52
2018-06-04T05:28:06.293Z,25.30
2018-06-04T05:28:39.518Z,24.77
2018-06-04T05:29:12.719Z,24.75
2018-06-04T05:29:45.960Z,23.92
2018-06-04T05:30:19.182Z,24.92
2018-06-04T05:30:52.398Z,22.80
2018-06-04T05:31:25.621Z,24.20
2018-06-04T05:31:58.844Z,24.32
2018-06-04T05:32:32.055Z,24.02
2018-06-04T05:33:05.354Z,23.60
2018-06-04T05:33:38.629Z,24.35
2018-06-04T05:34:11.873Z,23.35
2018-06-04T05:34:45.107Z,22.93
2018-06-04T05:35:18.393Z,25.85
2018-06-04T05:35:51.618Z,25.65
2018-06-04T05:36:24.855Z,24.47
2018-06-04T05:36:58.089Z,25.35
2018-06-04T05:37:31.359Z,21.60
2018-06-04T05:38:04.641Z,24.07
2018-06-04T05:38:37.845Z,22.50
2018-06-04T05:39:11.287Z,24.10
2018-06-04T05:39:44.511Z,23.00
2018-06-04T05:40:17.767Z,23.38
2018-06-04T05:40:51.007Z,24.47
2018-06-04T05:41:24.248Z,26.55
2018-06-04T05:41:57.505Z,24.85
2018-06-04T05:42:30.732Z,25.02
2018-06-04T05:43:03.977Z,22.98
2018-06-04T05:43:37.193Z,25.88
2018-06-04T05:44:10.483Z,24.45
2018-06-04T05:44:43.723Z,25.37
2018-06-04T05:45:17.017Z,25.40
2018-06-04T05:45:50.635Z,25.77
2018-06-04T05:46:23.851Z,26.02
2018-06-04T05:46:57.087Z,24.92
2018-06-04T05:47:30.305Z,24.85
2018-06-04T05:48:03.627Z,23.70
2018-06-04T05:48:36.875Z,22.93
2018-06-04T05:49:10.087Z,25.35
2018-06-04T05:49:43.393Z,23.32
2018-06-04T05:50:16.623Z,23.70
2018-06-04T05:50:49.855Z,20.65
2018-06-04T05:51:23.081Z,22.02
2018-06-04T05:51:56.319Z,22.60
2018-06-04T05:52:29.576Z,22.05
2018-06-04T05:53:02.796Z,23.73
2018-06-04T05:53:36.041Z,18.77
2018-06-04T05:54:09.573Z,21.10
2018-06-04T05:54:42.947Z,19.17
2018-06-04T05:55:16.205Z,21.12
2018-06-04T05:55:49.465Z,20.75
2018-06-04T05:56:22.695Z,19.67
2018-06-04T05:56:55.969Z,19.15
2018-06-04T05:57:29.207Z,18.23
2018-06-04T05:58:02.565Z,19.25
2018-06-04T05:58:35.813Z,20.05
2018-06-04T05:59:09.063Z,18.50
2018-06-04T05:59:42.293Z,16.10
2018-06-04T06:00:15.556Z,20.27
2018-06-04T06:00:48.782Z,18.75
2018-06-04T06:01:22.043Z,21.40
2018-06-04T06:01:55.245Z,20.52
2018-06-04T06:02:28.487Z,17.98
2018-06-04T06:03:01.708Z,18.77
2018-06-04T06:03:34.941Z,18.75
2018-06-04T06:04:08.191Z,20.32
2018-06-04T06:04:41.441Z,19.70
2018-06-04T06:05:14.695Z,19.67
2018-06-04T06:05:47.969Z,20.90
2018-06-04T06:06:21.211Z,20.35
2018-06-04T06:06:54.439Z,20.35
2018-06-04T06:07:27.665Z,20.12
2018-06-04T06:08:00.942Z,20.65
2018-06-04T06:08:34.164Z,20.48
2018-06-04T06:09:09.492Z,21.12
2018-06-04T06:09:42.703Z,20.82
2018-06-04T06:10:15.943Z,20.37
2018-06-04T06:11:20.165Z,21.40
2018-06-04T06:11:53.385Z,19.40
2018-06-04T06:12:26.653Z,22.05
2018-06-04T06:12:59.856Z,20.45
2018-06-04T06:13:33.107Z,21.12
2018-06-04T06:14:06.351Z,21.15
2018-06-04T06:14:39.615Z,21.95
2018-06-04T06:15:12.865Z,22.37
2018-06-04T06:15:46.095Z,21.75
2018-06-04T06:16:19.330Z,21.85
2018-06-04T06:16:52.645Z,21.37
2018-06-04T06:17:25.870Z,22.73
2018-06-04T06:17:59.075Z,19.42
2018-06-04T06:18:32.288Z,22.27
2018-06-04T06:19:05.535Z,22.40
2018-06-04T06:19:38.738Z,22.00
2018-06-04T06:20:11.971Z,19.90
2018-06-04T06:20:45.183Z,21.33
2018-06-04T06:21:18.437Z,20.65
2018-06-04T06:21:51.678Z,22.67
2018-06-04T06:22:24.887Z,22.50
2018-06-04T06:22:58.135Z,20.90
2018-06-04T06:23:31.408Z,21.77
2018-06-04T06:24:04.641Z,19.92
2018-06-04T06:24:37.866Z,22.02
2018-06-04T06:25:11.083Z,21.07
2018-06-04T06:25:44.321Z,18.48
2018-06-04T06:26:17.795Z,20.97
2018-06-04T06:26:50.987Z,22.42
2018-06-04T06:27:24.229Z,20.57
2018-06-04T06:27:57.488Z,22.50
2018-06-04T06:28:30.704Z,19.67
2018-06-04T06:29:03.993Z,21.90
2018-06-04T06:29:37.227Z,19.52
2018-06-04T06:30:10.419Z,20.08
2018-06-04T06:30:43.686Z,19.80
2018-06-04T06:31:16.900Z,20.37
2018-06-04T06:31:50.125Z,21.55
2018-06-04T06:32:23.367Z,22.73
2018-06-04T06:32:56.569Z,21.25
2018-06-04T06:33:29.774Z,21.93
2018-06-04T06:34:03.065Z,22.15
2018-06-04T06:34:36.304Z,22.17
2018-06-04T06:35:09.546Z,21.77
2018-06-04T06:35:42.815Z,22.30
2018-06-04T06:36:16.049Z,21.73
2018-06-04T06:36:49.271Z,22.52
2018-06-04T06:37:22.491Z,20.12
2018-06-04T06:37:55.741Z,21.65
2018-06-04T06:38:28.964Z,21.60
2018-06-04T06:39:02.293Z,21.57
2018-06-04T06:39:35.615Z,20.60
2018-06-04T06:40:08.861Z,21.00
2018-06-04T06:40:42.113Z,22.07
2018-06-04T06:41:15.382Z,20.62
2018-06-04T06:41:48.689Z,20.20
2018-06-04T06:42:21.917Z,20.50
2018-06-04T06:42:55.195Z,21.30
2018-06-04T06:43:28.475Z,20.60
2018-06-04T06:44:01.716Z,19.90
2018-06-04T06:44:35.045Z,19.85
2018-06-04T06:45:09.200Z,18.87
2018-06-04T06:45:42.436Z,19.60
2018-06-04T06:46:15.698Z,20.10
2018-06-04T06:46:48.965Z,19.77
2018-06-04T06:47:22.231Z,18.15
2018-06-04T06:47:55.450Z,18.98
2018-06-04T06:48:28.756Z,19.85
2018-06-04T06:49:01.991Z,18.70
2018-06-04T06:49:35.219Z,20.00
2018-06-04T06:50:08.579Z,18.35
2018-06-04T06:50:41.828Z,17.50
2018-06-04T06:51:15.221Z,19.60
2018-06-04T06:51:48.486Z,16.93
2018-06-04T06:52:21.764Z,19.60
2018-06-04T06:52:55.079Z,18.52
2018-06-04T06:53:28.316Z,16.00
2018-06-04T06:54:01.646Z,17.57
2018-06-04T06:54:34.915Z,18.32
2018-06-04T06:55:08.172Z,18.95
2018-06-04T06:55:41.428Z,18.40
2018-06-04T06:56:14.654Z,17.48
2018-06-04T06:56:47.875Z,15.55
2018-06-04T06:57:21.132Z,14.80
2018-06-04T06:57:54.371Z,16.15
2018-06-04T06:58:27.590Z,13.20
2018-06-04T06:59:00.794Z,13.75
2018-06-04T06:59:34.053Z,12.65
2018-06-04T07:00:08.551Z,11.22
2018-06-04T07:00:41.842Z,11.05
2018-06-04T07:01:15.058Z,12.20
2018-06-04T07:01:48.252Z,11.90
2018-06-04T07:02:21.516Z,13.53
2018-06-04T07:02:54.743Z,12.43
2018-06-04T07:03:27.981Z,12.98
2018-06-04T07:04:01.219Z,13.68
2018-06-04T07:04:34.457Z,14.87
2018-06-04T07:05:07.695Z,14.93
2018-06-04T07:05:40.926Z,14.83
2018-06-04T07:06:14.198Z,15.40
2018-06-04T07:06:47.471Z,14.05
2018-06-04T07:07:20.691Z,14.90
2018-06-04T07:07:53.955Z,15.75
2018-06-04T07:08:27.175Z,15.93
2018-06-04T07:09:00.382Z,16.23
2018-06-04T07:09:33.623Z,15.75
2018-06-04T07:10:06.897Z,16.42
2018-06-04T07:10:40.147Z,15.38
2018-06-04T07:11:13.365Z,15.35
2018-06-04T07:11:46.598Z,14.63